createdAt,value
2022-08-01T00:00:28.139Z,23.34
2022-08-01T00:03:13.251Z,23.33
2022-08-01T00:05:58.502Z,23.33
2022-08-01T00:08:43.681Z,23.31
2022-08-01T00:11:29.070Z,23.30
2022-08-01T00:14:14.268Z,23.29
2022-08-01T00:17:03.931Z,23.29
2022-08-01T00:19:52.988Z,23.28
2022-08-01T00:22:38.917Z,23.29
2022-08-01T00:25:34.327Z,23.27
2022-08-01T00:28:19.951Z,23.26
2022-08-01T00:31:05.431Z,23.26
2022-08-01T00:33:50.995Z,23.26
2022-08-01T00:36:36.382Z,23.24
2022-08-01T00:39:21.697Z,23.24
2022-08-01T00:42:08.894Z,23.26
2022-08-01T00:44:54.305Z,23.27
2022-08-01T00:47:39.894Z,23.23
2022-08-01T00:50:25.566Z,23.22
2022-08-01T00:53:11.256Z,23.20
2022-08-01T00:56:05.289Z,23.21
2022-08-01T00:58:51.217Z,23.21
2022-08-01T01:01:39.969Z,23.20
2022-08-01T01:04:25.572Z,23.18
2022-08-01T01:07:25.666Z,23.20
2022-08-01T01:10:37.219Z,23.19
2022-08-01T01:13:50.245Z,23.18
2022-08-01T01:16:41.870Z,23.16
2022-08-01T01:19:31.328Z,23.16
2022-08-01T01:23:01.035Z,23.18
2022-08-01T01:26:11.659Z,23.16
2022-08-01T01:29:03.044Z,23.15
2022-08-01T01:32:30.758Z,23.15
2022-08-01T01:35:26.030Z,23.14
2022-08-01T01:38:29.186Z,23.13
2022-08-01T01:41:18.030Z,23.13
2022-08-01T01:44:05.300Z,23.13
2022-08-01T01:46:52.188Z,23.11
2022-08-01T01:49:38.218Z,23.10
2022-08-01T01:52:26.069Z,23.09
2022-08-01T01:55:14.430Z,23.09
2022-08-01T01:58:01.329Z,23.09
2022-08-01T02:00:49.313Z,23.09
2022-08-01T02:03:37.961Z,23.11
2022-08-01T02:06:25.377Z,23.09
2022-08-01T02:09:12.236Z,23.08
2022-08-01T02:12:08.031Z,23.08
2022-08-01T02:14:55.717Z,23.08
2022-08-01T02:17:45.038Z,23.06
2022-08-01T02:20:31.672Z,23.07
2022-08-01T02:23:17.108Z,23.06
2022-08-01T02:26:10.949Z,23.07
2022-08-01T02:29:00.443Z,23.04
2022-08-01T02:31:48.860Z,23.04
2022-08-01T02:34:36.785Z,23.06
2022-08-01T02:37:24.877Z,23.02
2022-08-01T02:40:14.342Z,23.04
2022-08-01T02:43:03.446Z,23.02
2022-08-01T02:45:55.269Z,23.01
2022-08-01T02:48:42.587Z,23.02
2022-08-01T02:51:29.324Z,23.00
2022-08-01T02:54:16.946Z,22.98
2022-08-01T02:57:05.336Z,22.98
2022-08-01T02:59:54.864Z,22.99
2022-08-01T03:02:43.783Z,22.98
2022-08-01T03:05:31.190Z,22.97
2022-08-01T03:08:18.056Z,22.99
2022-08-01T03:11:04.839Z,23.00
2022-08-01T03:13:52.915Z,22.99
2022-08-01T03:16:40.884Z,22.97
2022-08-01T03:19:28.871Z,22.95
2022-08-01T03:22:15.947Z,22.96
2022-08-01T03:25:02.862Z,22.95
2022-08-01T03:27:55.030Z,22.96
2022-08-01T03:30:41.749Z,22.96
2022-08-01T03:33:27.624Z,22.97
2022-08-01T03:36:14.638Z,22.97
2022-08-01T03:39:03.572Z,22.96
2022-08-01T03:41:56.876Z,22.95
2022-08-01T03:44:45.681Z,22.94
2022-08-01T03:47:40.835Z,22.93
2022-08-01T03:50:34.792Z,22.95
2022-08-01T03:53:27.008Z,22.94
2022-08-01T03:56:15.396Z,22.94
2022-08-01T03:59:02.418Z,22.93
2022-08-01T04:01:48.842Z,22.94
2022-08-01T04:04:34.791Z,22.92
2022-08-01T04:07:31.718Z,22.92
2022-08-01T04:10:17.901Z,22.94
2022-08-01T04:13:03.637Z,22.92
2022-08-01T04:15:48.878Z,22.92
2022-08-01T04:18:34.265Z,22.94
2022-08-01T04:21:23.513Z,22.93
2022-08-01T04:24:17.522Z,22.95
2022-08-01T04:27:05.938Z,22.97
2022-08-01T04:29:56.086Z,22.99
2022-08-01T04:32:45.352Z,22.99
2022-08-01T04:36:01.989Z,22.97
2022-08-01T04:38:40.547Z,22.98
2022-08-01T04:41:26.789Z,23.00
2022-08-01T04:44:12.503Z,23.02
2022-08-01T04:46:57.946Z,23.04
2022-08-01T04:49:44.446Z,23.07
2022-08-01T04:52:36.506Z,23.08
2022-08-01T04:55:22.200Z,23.12
2022-08-01T04:58:09.073Z,23.13
2022-08-01T05:00:54.371Z,23.15
2022-08-01T05:03:39.905Z,23.17
2022-08-01T05:06:25.331Z,23.18
2022-08-01T05:09:10.954Z,23.20
2022-08-01T05:11:59.938Z,23.21
2022-08-01T05:14:47.159Z,23.20
2022-08-01T05:17:33.211Z,23.19
2022-08-01T05:20:18.857Z,23.18
2022-08-01T05:23:10.378Z,23.20
2022-08-01T05:25:59.069Z,23.20
2022-08-01T05:28:44.114Z,23.20
2022-08-01T05:31:29.801Z,23.21
2022-08-01T05:34:15.655Z,23.23
2022-08-01T05:37:01.222Z,23.22
2022-08-01T05:39:46.769Z,23.22
2022-08-01T05:42:32.181Z,23.22
2022-08-01T05:45:20.152Z,23.23
2022-08-01T05:48:06.966Z,23.26
2022-08-01T05:50:58.397Z,23.27
2022-08-01T05:53:44.085Z,23.26
2022-08-01T05:56:32.308Z,23.28
2022-08-01T05:59:17.779Z,23.27
2022-08-01T06:02:03.453Z,23.29
2022-08-01T06:04:49.265Z,23.29
2022-08-01T06:07:34.743Z,23.30
2022-08-01T06:10:24.020Z,23.30
2022-08-01T06:13:09.304Z,23.31
2022-08-01T06:15:54.576Z,23.29
2022-08-01T06:18:40.472Z,23.29
2022-08-01T06:21:25.985Z,23.30
2022-08-01T06:24:11.070Z,23.30
2022-08-01T06:26:56.786Z,23.29
2022-08-01T06:29:51.243Z,23.32
2022-08-01T06:32:39.839Z,23.29
2022-08-01T06:35:25.431Z,23.31
2022-08-01T06:38:11.186Z,23.32
2022-08-01T06:40:56.649Z,23.33
2022-08-01T06:43:41.940Z,23.34
2022-08-01T06:46:30.484Z,23.32
2022-08-01T06:49:23.345Z,23.32
2022-08-01T06:52:09.251Z,23.36
2022-08-01T06:54:55.331Z,23.36
2022-08-01T06:57:53.835Z,23.36
2022-08-01T07:00:39.449Z,23.38
2022-08-01T07:03:24.597Z,23.37
2022-08-01T07:06:10.664Z,23.37
2022-08-01T07:08:56.601Z,23.36
2022-08-01T07:11:42.351Z,23.35
2022-08-01T07:14:27.787Z,23.38
2022-08-01T07:17:13.394Z,23.37
2022-08-01T07:19:58.540Z,23.39
2022-08-01T07:22:44.074Z,23.38
2022-08-01T07:25:32.658Z,23.36
2022-08-01T07:28:17.913Z,23.39
2022-08-01T07:31:03.399Z,23.40
2022-08-01T07:33:49.500Z,23.40
2022-08-01T07:36:35.221Z,23.40
2022-08-01T07:39:21.085Z,23.40
2022-08-01T07:42:13.620Z,23.42
2022-08-01T07:44:59.650Z,23.44
2022-08-01T07:47:45.177Z,23.44
2022-08-01T07:50:31.038Z,23.45
2022-08-01T07:53:19.966Z,23.45
2022-08-01T07:56:08.897Z,23.48
2022-08-01T07:58:54.229Z,23.49
2022-08-01T08:01:39.893Z,23.54
2022-08-01T08:04:25.707Z,23.54
2022-08-01T08:07:11.259Z,23.54
2022-08-01T08:09:57.051Z,23.53
2022-08-01T08:12:42.432Z,23.55
2022-08-01T08:15:29.212Z,23.58
2022-08-01T08:18:14.721Z,23.60
2022-08-01T08:21:04.849Z,23.60
2022-08-01T08:24:10.645Z,23.60
2022-08-01T08:27:00.466Z,23.58
2022-08-01T08:29:46.545Z,23.59
2022-08-01T08:32:32.660Z,23.59
2022-08-01T08:35:23.405Z,23.60
2022-08-01T08:38:28.436Z,23.62
2022-08-01T08:41:20.672Z,23.63
2022-08-01T08:44:10.423Z,23.64
2022-08-01T08:46:58.840Z,23.64
2022-08-01T08:49:45.761Z,23.66
2022-08-01T08:52:38.927Z,23.68
2022-08-01T08:55:25.610Z,23.66
2022-08-01T08:58:16.034Z,23.69
2022-08-01T09:01:01.579Z,23.73
2022-08-01T09:03:46.721Z,23.71
2022-08-01T09:06:33.736Z,23.73
2022-08-01T09:09:19.146Z,23.71
2022-08-01T09:12:05.488Z,23.69
2022-08-01T09:14:54.447Z,23.67
2022-08-01T09:17:42.183Z,23.69
2022-08-01T09:20:28.667Z,23.70
2022-08-01T09:23:54.131Z,23.72
2022-08-01T09:26:40.594Z,23.75
2022-08-01T09:29:38.379Z,23.77
2022-08-01T09:32:31.414Z,23.79
2022-08-01T09:35:31.092Z,23.80
2022-08-01T09:38:19.065Z,23.82
2022-08-01T09:41:04.916Z,23.83
2022-08-01T09:43:51.689Z,23.84
2022-08-01T09:46:56.682Z,23.84
2022-08-01T09:49:49.846Z,23.82
2022-08-01T09:52:37.461Z,23.83
2022-08-01T09:55:25.932Z,23.82
2022-08-01T09:58:12.669Z,23.84
2022-08-01T10:01:01.204Z,23.83
2022-08-01T10:03:46.938Z,23.85
2022-08-01T10:06:32.784Z,23.86
2022-08-01T10:09:35.899Z,23.88
2022-08-01T10:12:26.206Z,23.85
2022-08-01T10:15:11.963Z,23.85
2022-08-01T10:18:06.139Z,23.87
2022-08-01T10:21:10.853Z,23.87
2022-08-01T10:24:01.182Z,23.87
2022-08-01T10:26:50.686Z,23.87
2022-08-01T10:29:58.920Z,23.86
2022-08-01T10:32:53.312Z,23.88
2022-08-01T10:35:46.750Z,23.88
2022-08-01T10:38:37.993Z,23.88
2022-08-01T10:41:25.704Z,23.89
2022-08-01T10:44:13.306Z,23.87
2022-08-01T10:47:10.690Z,23.86
2022-08-01T10:50:12.766Z,23.85
2022-08-01T10:53:16.750Z,23.84
2022-08-01T10:56:11.121Z,23.84
2022-08-01T10:59:06.406Z,23.86
2022-08-01T11:02:04.148Z,23.84
2022-08-01T11:04:57.064Z,23.86
2022-08-01T11:07:56.021Z,23.86
2022-08-01T11:10:46.698Z,23.90
2022-08-01T11:14:03.173Z,23.91
2022-08-01T11:16:49.021Z,23.94
2022-08-01T11:20:09.269Z,23.93
2022-08-01T11:23:04.766Z,23.95
2022-08-01T11:26:04.694Z,23.97
2022-08-01T11:29:20.982Z,23.98
2022-08-01T11:32:27.561Z,24.02
2022-08-01T11:35:13.616Z,24.02
2022-08-01T11:38:25.826Z,24.07
2022-08-01T11:41:11.822Z,24.09
2022-08-01T11:44:04.382Z,24.07
2022-08-01T11:47:09.684Z,24.12
2022-08-01T11:49:57.119Z,24.16
2022-08-01T11:52:46.540Z,24.14
2022-08-01T11:55:32.129Z,24.16
2022-08-01T11:58:27.572Z,24.15
2022-08-01T12:01:18.397Z,24.11
2022-08-01T12:04:04.147Z,24.09
2022-08-01T12:06:51.012Z,24.07
2022-08-01T12:09:36.333Z,24.03
2022-08-01T12:12:21.612Z,24.04
2022-08-01T12:15:10.051Z,24.01
2022-08-01T12:18:01.552Z,23.99
2022-08-01T12:20:56.909Z,24.01
2022-08-01T12:23:42.627Z,23.96
2022-08-01T12:26:44.145Z,23.98
2022-08-01T12:29:41.223Z,23.98
2022-08-01T12:32:33.826Z,23.98
2022-08-01T12:35:26.564Z,23.99
2022-08-01T12:38:18.042Z,23.95
2022-08-01T12:41:04.947Z,24.02
2022-08-01T12:43:50.234Z,24.01
2022-08-01T12:46:35.574Z,24.02
2022-08-01T12:49:21.190Z,23.97
2022-08-01T12:52:13.309Z,23.97
2022-08-01T12:55:22.961Z,23.98
2022-08-01T12:58:16.092Z,23.99
2022-08-01T13:01:11.118Z,23.98
2022-08-01T13:04:07.222Z,24.01
2022-08-01T13:06:56.214Z,23.97
2022-08-01T13:09:53.033Z,24.01
2022-08-01T13:12:40.198Z,24.03
2022-08-01T13:15:35.673Z,24.03
2022-08-01T13:18:28.619Z,24.07
2022-08-01T13:21:23.338Z,24.07
2022-08-01T13:24:14.065Z,24.04
2022-08-01T13:27:05.142Z,24.06
2022-08-01T13:29:53.943Z,24.07
2022-08-01T13:32:39.846Z,24.11
2022-08-01T13:35:25.883Z,24.11
2022-08-01T13:38:11.371Z,24.11
2022-08-01T13:41:00.302Z,24.12
2022-08-01T13:43:58.438Z,24.14
2022-08-01T13:46:49.799Z,24.13
2022-08-01T13:49:37.335Z,24.13
2022-08-01T13:52:23.448Z,24.14
2022-08-01T13:55:11.092Z,24.15
2022-08-01T13:57:57.395Z,24.15
2022-08-01T14:00:43.545Z,24.16
2022-08-01T14:03:33.836Z,24.17
2022-08-01T14:06:21.728Z,24.20
2022-08-01T14:09:17.896Z,24.19
2022-08-01T14:12:09.917Z,24.21
2022-08-01T14:14:55.408Z,24.22
2022-08-01T14:17:47.666Z,24.24
2022-08-01T14:20:35.275Z,24.23
2022-08-01T14:23:20.744Z,24.21
2022-08-01T14:26:12.072Z,24.21
2022-08-01T14:28:58.375Z,24.22
2022-08-01T14:31:43.814Z,24.23
2022-08-01T14:34:29.132Z,24.24
2022-08-01T14:37:14.422Z,24.24
2022-08-01T14:40:05.167Z,24.25
2022-08-01T14:42:52.910Z,24.27
2022-08-01T14:45:38.268Z,24.29
2022-08-01T14:48:23.495Z,24.32
2022-08-01T14:51:09.263Z,24.34
2022-08-01T14:53:54.906Z,24.32
2022-08-01T14:56:40.322Z,24.32
2022-08-01T14:59:25.836Z,24.28
2022-08-01T15:02:12.250Z,24.26
2022-08-01T15:04:57.584Z,24.24
2022-08-01T15:07:52.265Z,24.24
2022-08-01T15:10:39.493Z,24.31
2022-08-01T15:13:24.971Z,24.33
2022-08-01T15:16:11.893Z,24.34
2022-08-01T15:18:57.612Z,24.38
2022-08-01T15:21:42.702Z,24.38
2022-08-01T15:24:27.934Z,24.38
2022-08-01T15:27:13.333Z,24.39
2022-08-01T15:29:58.576Z,24.40
2022-08-01T15:32:44.614Z,24.41
2022-08-01T15:35:30.764Z,24.40
2022-08-01T15:38:16.319Z,24.40
2022-08-01T15:41:01.790Z,24.45
2022-08-01T15:43:47.024Z,24.45
2022-08-01T15:46:41.538Z,24.46
2022-08-01T15:49:27.483Z,24.45
2022-08-01T15:52:22.167Z,24.42
2022-08-01T15:55:10.110Z,24.44
2022-08-01T15:57:55.929Z,24.40
2022-08-01T16:00:41.215Z,24.38
2022-08-01T16:03:27.804Z,24.36
2022-08-01T16:06:13.395Z,24.37
2022-08-01T16:08:58.954Z,24.38
2022-08-01T16:11:50.634Z,24.37
2022-08-01T16:14:36.398Z,24.36
2022-08-01T16:17:21.635Z,24.41
2022-08-01T16:20:08.211Z,24.42
2022-08-01T16:22:53.534Z,24.41
2022-08-01T16:25:38.905Z,24.45
2022-08-01T16:28:24.922Z,24.46
2022-08-01T16:31:11.247Z,24.47
2022-08-01T16:34:15.919Z,24.47
2022-08-01T16:37:01.284Z,24.50
2022-08-01T16:39:47.432Z,24.49
2022-08-01T16:42:32.913Z,24.48
2022-08-01T16:45:21.114Z,24.41
2022-08-01T16:48:06.317Z,24.39
2022-08-01T16:50:52.997Z,24.35
2022-08-01T16:53:38.386Z,24.34
2022-08-01T16:56:23.682Z,24.34
2022-08-01T16:59:09.049Z,24.35
2022-08-01T17:02:00.167Z,24.39
2022-08-01T17:04:48.163Z,24.40
2022-08-01T17:07:34.236Z,24.36
2022-08-01T17:10:20.632Z,24.34
2022-08-01T17:13:06.399Z,24.31
2022-08-01T17:15:52.290Z,24.27
2022-08-01T17:18:40.226Z,24.28
2022-08-01T17:21:27.857Z,24.28
2022-08-01T17:24:16.401Z,24.28
2022-08-01T17:27:02.553Z,24.27
2022-08-01T17:29:47.826Z,24.27
2022-08-01T17:32:35.565Z,24.25
2022-08-01T17:35:21.145Z,24.28
2022-08-01T17:38:06.721Z,24.27
2022-08-01T17:40:52.588Z,24.27
2022-08-01T17:43:39.387Z,24.26
2022-08-01T17:46:25.253Z,24.23
2022-08-01T17:49:12.592Z,24.20
2022-08-01T17:51:59.775Z,24.19
2022-08-01T17:54:45.451Z,24.20
2022-08-01T17:57:33.523Z,24.21
2022-08-01T18:00:19.348Z,24.22
2022-08-01T18:03:08.218Z,24.23
2022-08-01T18:05:54.511Z,24.20
2022-08-01T18:08:42.161Z,24.19
2022-08-01T18:11:27.825Z,24.20
2022-08-01T18:14:14.385Z,24.19
2022-08-01T18:17:00.565Z,24.17
2022-08-01T18:19:46.756Z,24.17
2022-08-01T18:22:33.981Z,24.18
2022-08-01T18:25:20.308Z,24.15
2022-08-01T18:28:25.607Z,24.15
2022-08-01T18:31:13.133Z,24.15
2022-08-01T18:33:59.190Z,24.15
2022-08-01T18:36:44.462Z,24.12
2022-08-01T18:39:30.424Z,24.14
2022-08-01T18:42:18.633Z,24.14
2022-08-01T18:45:04.077Z,24.12
2022-08-01T18:47:51.401Z,24.11
2022-08-01T18:50:36.810Z,24.13
2022-08-01T18:53:24.113Z,24.13
2022-08-01T18:56:12.074Z,24.12
2022-08-01T18:58:58.232Z,24.10
2022-08-01T19:01:43.711Z,24.11
2022-08-01T19:04:29.717Z,24.10
2022-08-01T19:07:20.905Z,24.15
2022-08-01T19:10:18.976Z,24.12
2022-08-01T19:13:04.971Z,24.11
2022-08-01T19:15:51.317Z,24.11
2022-08-01T19:18:36.687Z,24.09
2022-08-01T19:21:24.002Z,24.08
2022-08-01T19:24:23.534Z,24.12
2022-08-01T19:27:13.077Z,24.13
2022-08-01T19:30:02.329Z,24.09
2022-08-01T19:32:49.049Z,24.00
2022-08-01T19:35:35.889Z,24.03
2022-08-01T19:38:22.432Z,24.05
2022-08-01T19:41:09.761Z,24.06
2022-08-01T19:44:03.631Z,24.09
2022-08-01T19:46:49.746Z,24.09
2022-08-01T19:49:35.729Z,24.07
2022-08-01T19:52:26.327Z,24.09
2022-08-01T19:55:13.250Z,24.10
2022-08-01T19:58:25.407Z,24.09
2022-08-01T20:01:04.391Z,24.06
2022-08-01T20:03:51.782Z,24.06
2022-08-01T20:06:42.317Z,24.07
2022-08-01T20:09:28.204Z,24.09
2022-08-01T20:12:14.805Z,24.07
2022-08-01T20:15:00.604Z,24.09
2022-08-01T20:17:46.083Z,24.10
2022-08-01T20:20:32.369Z,24.11
2022-08-01T20:23:23.796Z,24.07
2022-08-01T20:26:10.259Z,24.05
2022-08-01T20:28:57.357Z,23.99
2022-08-01T20:31:48.721Z,23.99
2022-08-01T20:34:39.629Z,23.99
2022-08-01T20:38:06.195Z,23.97
2022-08-01T20:40:31.226Z,23.96
2022-08-01T20:43:26.088Z,23.92
2022-08-01T20:46:11.317Z,23.90
2022-08-01T20:48:58.793Z,23.89
2022-08-01T20:51:45.989Z,23.85
2022-08-01T20:54:31.475Z,23.84
2022-08-01T20:57:25.321Z,23.81
2022-08-01T21:00:11.386Z,23.78
2022-08-01T21:03:04.855Z,23.77
2022-08-01T21:06:05.648Z,23.76
2022-08-01T21:08:56.116Z,23.72
2022-08-01T21:12:05.178Z,23.73
2022-08-01T21:14:53.633Z,23.72
2022-08-01T21:18:02.717Z,23.67
2022-08-01T21:21:19.086Z,23.66
2022-08-01T21:24:15.451Z,23.66
2022-08-01T21:27:03.307Z,23.65
2022-08-01T21:29:51.685Z,23.64
2022-08-01T21:32:37.686Z,23.64
2022-08-01T21:35:25.351Z,23.63
2022-08-01T21:38:11.966Z,23.62
2022-08-01T21:41:02.827Z,23.61
2022-08-01T21:43:48.745Z,23.59
2022-08-01T21:46:34.007Z,23.58
2022-08-01T21:49:21.702Z,23.58
2022-08-01T21:52:18.270Z,23.55
2022-08-01T21:55:17.847Z,23.53
2022-08-01T21:58:16.510Z,23.52
2022-08-01T22:01:24.697Z,23.51
2022-08-01T22:04:14.838Z,23.49
2022-08-01T22:07:02.658Z,23.47
2022-08-01T22:09:53.543Z,23.46
2022-08-01T22:12:39.309Z,23.44
2022-08-01T22:15:26.627Z,23.44
2022-08-01T22:18:30.676Z,23.42
2022-08-01T22:21:17.333Z,23.42
2022-08-01T22:24:05.109Z,23.39
2022-08-01T22:26:53.145Z,23.40
2022-08-01T22:29:38.479Z,23.38
2022-08-01T22:32:30.276Z,23.37
2022-08-01T22:35:17.108Z,23.34
2022-08-01T22:38:02.186Z,23.35
2022-08-01T22:40:51.057Z,23.34
2022-08-01T22:43:42.319Z,23.33
2022-08-01T22:46:56.071Z,23.31
2022-08-01T22:49:56.160Z,23.32
2022-08-01T22:52:54.933Z,23.29
2022-08-01T22:55:59.218Z,23.28
2022-08-01T22:58:45.027Z,23.28
2022-08-01T23:01:33.145Z,23.28
2022-08-01T23:05:01.928Z,23.26
2022-08-01T23:07:54.520Z,23.24
2022-08-01T23:10:41.029Z,23.25
2022-08-01T23:13:29.083Z,23.22
2022-08-01T23:16:17.488Z,23.22
2022-08-01T23:19:03.535Z,23.21
2022-08-01T23:21:49.456Z,23.20
2022-08-01T23:24:36.042Z,23.21
2022-08-01T23:27:51.831Z,23.20
2022-08-01T23:30:35.773Z,23.19
2022-08-01T23:33:21.101Z,23.19
2022-08-01T23:36:06.372Z,23.18
2022-08-01T23:38:51.658Z,23.18
2022-08-01T23:41:57.250Z,23.18
2022-08-01T23:44:42.582Z,23.16
2022-08-01T23:47:27.948Z,23.15
2022-08-01T23:50:13.421Z,23.14
2022-08-01T23:52:59.078Z,23.13
2022-08-01T23:55:44.531Z,23.13
2022-08-01T23:58:30.452Z,23.12
